Time;durP1;ratioP1;P1;durP2;ratioP2;P2;SDS_P1;SDS_P2;PMS_P1;PMS_P2;Temp;Humidity;BMP_temperature;BMP_pressure;BME280_temperature;BME280_humidity;BME280_pressure;Samples;Min_cycle;Max_cycle;Signal;HPM_P1;HPM_P2
2022/11/01 00:01:07;;;;;;;;;;;13.60;99.90;;;;;;5042119;28;19913;-47
2022/11/01 00:03:32;;;;;;;;;;;13.70;99.90;;;;;;5045095;28;19916;-47
2022/11/01 00:05:58;;;;;;;;;;;13.70;99.90;;;;;;5046034;28;19970;-47
2022/11/01 00:08:23;;;;;;;;;;;13.70;99.90;;;;;;5037501;28;20252;-48
2022/11/01 00:10:49;;;;;;;;;;;13.70;99.90;;;;;;5032296;28;19963;-49
2022/11/01 00:13:14;;;;;;;;;;;13.70;99.90;;;;;;5048734;28;19915;-46
2022/11/01 00:15:40;;;;;;;;;;;13.70;99.90;;;;;;5035275;28;19999;-50
2022/11/01 00:18:05;;;;;;;;;;;13.80;99.90;;;;;;5046848;28;19958;-53
2022/11/01 00:20:31;;;;;;;;;;;13.80;99.90;;;;;;5048451;28;20422;-51
2022/11/01 00:22:56;;;;;;;;;;;13.80;99.90;;;;;;5046881;28;19947;-50
2022/11/01 00:25:22;;;;;;;;;;;13.80;99.90;;;;;;5043640;28;20681;-47
2022/11/01 00:27:47;;;;;;;;;;;13.80;99.90;;;;;;5036545;28;19916;-48
2022/11/01 00:30:13;;;;;;;;;;;13.80;99.90;;;;;;5046893;28;19960;-48
2022/11/01 00:32:38;;;;;;;;;;;13.80;99.90;;;;;;5048723;28;20379;-53
2022/11/01 00:35:04;;;;;;;;;;;13.80;99.90;;;;;;5050560;28;19922;-47
2022/11/01 00:37:29;;;;;;;;;;;13.70;99.90;;;;;;5044634;28;19909;-49
2022/11/01 00:39:55;;;;;;;;;;;13.70;99.90;;;;;;5030705;28;20435;-49
2022/11/01 00:42:20;;;;;;;;;;;13.70;99.90;;;;;;5048709;28;19919;-45
2022/11/01 00:44:46;;;;;;;;;;;13.70;99.90;;;;;;5041943;28;20355;-44
2022/11/01 00:47:11;;;;;;;;;;;13.70;99.90;;;;;;5042844;28;19913;-44
2022/11/01 00:49:37;;;;;;;;;;;13.80;99.90;;;;;;5036930;28;19940;-47
2022/11/01 00:52:02;;;;;;;;;;;13.70;99.90;;;;;;5047380;28;19917;-46
2022/11/01 00:54:28;;;;;;;;;;;13.80;99.90;;;;;;5047643;28;20266;-48
2022/11/01 00:56:53;;;;;;;;;;;13.80;99.90;;;;;;5049544;28;19905;-45
2022/11/01 00:59:19;;;;;;;;;;;13.80;99.90;;;;;;5039210;28;20027;-47
2022/11/01 01:01:45;;;;;;;;;;;13.80;99.90;;;;;;5048825;28;19905;-47
2022/11/01 01:04:10;;;;;;;;;;;13.80;99.90;;;;;;5043034;28;19928;-46
2022/11/01 01:06:36;;;;;;;;;;;13.90;99.90;;;;;;5037644;28;19951;-47
2022/11/01 01:09:01;;;;;;;;;;;13.80;99.90;;;;;;5046868;28;20310;-45
2022/11/01 01:11:27;;;;;;;;;;;13.90;99.90;;;;;;5050159;28;20527;-48
2022/11/01 01:13:52;;;;;;;;;;;13.90;99.90;;;;;;5047171;28;19908;-49
2022/11/01 01:16:18;;;;;;;;;;;13.90;99.90;;;;;;5027520;28;19931;-50
2022/11/01 01:18:43;;;;;;;;;;;13.90;99.90;;;;;;5033662;28;20003;-49
2022/11/01 01:21:09;;;;;;;;;;;13.90;99.90;;;;;;5043953;28;20424;-52
2022/11/01 01:23:35;;;;;;;;;;;13.90;99.90;;;;;;5042472;28;19999;-52
2022/11/01 01:26:04;;;;;;;;;;;13.90;99.90;;;;;;5047448;28;19916;-48
2022/11/01 01:28:29;;;;;;;;;;;13.90;99.90;;;;;;5042388;28;19909;-48
2022/11/01 01:30:55;;;;;;;;;;;13.90;99.90;;;;;;5035894;28;19950;-48
2022/11/01 01:33:20;;;;;;;;;;;13.90;99.90;;;;;;5047218;28;19962;-48
2022/11/01 01:35:46;;;;;;;;;;;13.90;99.90;;;;;;5033286;28;20000;-47
2022/11/01 01:38:11;;;;;;;;;;;13.80;99.90;;;;;;5042127;28;19931;-47
2022/11/01 01:40:37;;;;;;;;;;;13.80;99.90;;;;;;5041450;28;20434;-51
2022/11/01 01:43:02;;;;;;;;;;;13.80;99.90;;;;;;5036035;28;19913;-46
2022/11/01 01:45:28;;;;;;;;;;;13.90;99.90;;;;;;5045235;28;19920;-50
2022/11/01 01:47:54;;;;;;;;;;;13.90;99.90;;;;;;5031240;28;19909;-50
2022/11/01 01:50:23;;;;;;;;;;;13.80;99.90;;;;;;5039628;28;19917;-47
2022/11/01 01:52:49;;;;;;;;;;;13.80;99.90;;;;;;5040115;28;19913;-47
2022/11/01 01:55:17;;;;;;;;;;;13.80;99.90;;;;;;5042781;28;19924;-51
2022/11/01 01:57:43;;;;;;;;;;;13.70;99.90;;;;;;5034285;28;19912;-51
2022/11/01 02:00:08;;;;;;;;;;;13.60;99.90;;;;;;5046514;28;19909;-49
2022/11/01 02:02:34;;;;;;;;;;;13.60;99.90;;;;;;5039225;28;19951;-50
2022/11/01 02:05:01;;;;;;;;;;;13.60;99.90;;;;;;5044238;28;20317;-47
2022/11/01 02:07:27;;;;;;;;;;;13.50;99.90;;;;;;5029278;28;19912;-48
2022/11/01 02:09:54;;;;;;;;;;;13.50;99.90;;;;;;5048581;28;19915;-51
2022/11/01 02:12:21;;;;;;;;;;;13.40;99.90;;;;;;5046638;28;20071;-51
2022/11/01 02:14:47;;;;;;;;;;;13.40;99.90;;;;;;5048931;28;19913;-48
2022/11/01 02:17:26;;;;;;;;;;;13.30;99.90;;;;;;5039255;28;20431;-45
2022/11/01 02:20:10;;;;;;;;;;;13.30;99.90;;;;;;5045151;28;19912;-48
2022/11/01 02:22:42;;;;;;;;;;;13.20;99.90;;;;;;5028103;28;20038;-48
2022/11/01 02:25:16;;;;;;;;;;;13.20;99.90;;;;;;5039750;28;19999;-45
2022/11/01 02:27:44;;;;;;;;;;;13.00;99.90;;;;;;5040336;28;20264;-46
2022/11/01 02:30:17;;;;;;;;;;;13.00;99.90;;;;;;5037277;28;19916;-49
2022/11/01 02:32:55;;;;;;;;;;;12.90;99.90;;;;;;5020612;28;20011;-51
2022/11/01 02:35:21;;;;;;;;;;;12.90;99.90;;;;;;5031856;28;19917;-50
2022/11/01 02:37:46;;;;;;;;;;;12.80;99.90;;;;;;5040044;28;19913;-50
2022/11/01 02:40:20;;;;;;;;;;;12.80;99.90;;;;;;5035854;28;19908;-49
2022/11/01 02:42:47;;;;;;;;;;;12.70;99.90;;;;;;5041220;28;20291;-45
2022/11/01 02:45:27;;;;;;;;;;;12.70;99.90;;;;;;5046005;28;19999;-48
2022/11/01 02:48:03;;;;;;;;;;;12.60;99.90;;;;;;5036876;28;20014;-52
2022/11/01 02:50:45;;;;;;;;;;;12.50;99.90;;;;;;5040737;28;20580;-48
2022/11/01 02:53:11;;;;;;;;;;;12.50;99.90;;;;;;5042849;28;19913;-47
2022/11/01 02:55:37;;;;;;;;;;;12.50;99.90;;;;;;5047712;28;19957;-47
2022/11/01 02:58:10;;;;;;;;;;;12.40;99.90;;;;;;5026208;28;20000;-51
2022/11/01 03:00:36;;;;;;;;;;;12.40;99.90;;;;;;5030483;28;20371;-46
2022/11/01 03:03:01;;;;;;;;;;;12.30;99.90;;;;;;5045446;28;19919;-48
2022/11/01 03:05:33;;;;;;;;;;;12.30;99.90;;;;;;5033703;28;19963;-46
2022/11/01 03:08:01;;;;;;;;;;;12.20;99.90;;;;;;5033402;28;20352;-49
2022/11/01 03:10:47;;;;;;;;;;;12.20;99.90;;;;;;5046585;28;19982;-46
2022/11/01 03:13:27;;;;;;;;;;;12.20;99.90;;;;;;5045184;28;20007;-50
2022/11/01 03:15:56;;;;;;;;;;;12.10;99.90;;;;;;5046817;28;20352;-49
2022/11/01 03:18:27;;;;;;;;;;;12.10;99.90;;;;;;5042500;28;20343;-48
2022/11/01 03:20:58;;;;;;;;;;;12.00;99.90;;;;;;5037012;28;19965;-47
2022/11/01 03:23:27;;;;;;;;;;;12.00;99.90;;;;;;5046879;28;19919;-47
2022/11/01 03:25:54;;;;;;;;;;;12.00;99.90;;;;;;5030967;28;19909;-47
2022/11/01 03:28:22;;;;;;;;;;;12.00;99.90;;;;;;5038776;28;19912;-47
2022/11/01 03:31:01;;;;;;;;;;;12.00;99.90;;;;;;5044557;28;19924;-47
2022/11/01 03:33:27;;;;;;;;;;;12.00;99.90;;;;;;5032085;28;19955;-48
2022/11/01 03:35:56;;;;;;;;;;;12.00;99.90;;;;;;5043841;28;19924;-47
2022/11/01 03:38:25;;;;;;;;;;;12.10;99.90;;;;;;5042058;28;19912;-47
2022/11/01 03:40:59;;;;;;;;;;;12.00;99.90;;;;;;5049187;28;19909;-46
2022/11/01 03:43:26;;;;;;;;;;;12.00;99.90;;;;;;5047358;28;19911;-51
2022/11/01 03:45:52;;;;;;;;;;;12.00;99.90;;;;;;5039942;28;19979;-46
2022/11/01 03:48:17;;;;;;;;;;;12.00;99.90;;;;;;5031045;28;20380;-47
2022/11/01 03:50:50;;;;;;;;;;;11.90;99.90;;;;;;5042896;28;19908;-48
2022/11/01 03:53:16;;;;;;;;;;;11.90;99.90;;;;;;5042705;28;19908;-49
2022/11/01 03:55:41;;;;;;;;;;;12.00;99.90;;;;;;5029851;28;19966;-46
2022/11/01 03:58:07;;;;;;;;;;;11.90;99.90;;;;;;5048239;28;19970;-50
2022/11/01 04:00:34;;;;;;;;;;;11.90;99.90;;;;;;5048405;28;19909;-45
2022/11/01 04:03:00;;;;;;;;;;;11.90;99.90;;;;;;5049420;28;19909;-48
2022/11/01 04:05:26;;;;;;;;;;;11.90;99.90;;;;;;5042739;28;19982;-48
2022/11/01 04:07:52;;;;;;;;;;;11.80;99.90;;;;;;5025806;28;19913;-52
2022/11/01 04:10:18;;;;;;;;;;;11.80;99.90;;;;;;5044026;28;20275;-49
2022/11/01 04:12:44;;;;;;;;;;;11.80;99.90;;;;;;5049307;28;20333;-47
2022/11/01 04:21:09;;;;;;;;;;;11.60;99.90;;;;;;5027660;28;19915;-46
2022/11/01 04:23:35;;;;;;;;;;;11.50;99.90;;;;;;5042582;28;19920;-46
2022/11/01 04:26:00;;;;;;;;;;;11.50;99.90;;;;;;5030725;28;19913;-46
2022/11/01 04:28:26;;;;;;;;;;;11.50;99.90;;;;;;5037227;28;19955;-51
2022/11/01 04:30:51;;;;;;;;;;;11.50;99.90;;;;;;5050693;28;20330;-48
2022/11/01 04:33:17;;;;;;;;;;;11.40;99.90;;;;;;5035403;28;19917;-47
2022/11/01 04:35:43;;;;;;;;;;;11.40;99.90;;;;;;5040227;28;20015;-46
2022/11/01 04:38:09;;;;;;;;;;;11.30;99.90;;;;;;5038708;28;20356;-47
2022/11/01 04:40:34;;;;;;;;;;;11.30;99.90;;;;;;5040978;28;19961;-50
2022/11/01 04:43:00;;;;;;;;;;;11.20;99.90;;;;;;5046121;28;19917;-48
2022/11/01 04:45:25;;;;;;;;;;;11.20;99.90;;;;;;5044897;28;19913;-46
2022/11/01 04:48:01;;;;;;;;;;;11.20;99.90;;;;;;5042111;28;20351;-46
2022/11/01 04:50:26;;;;;;;;;;;11.30;99.90;;;;;;5042203;28;19917;-46
2022/11/01 04:52:52;;;;;;;;;;;11.20;99.90;;;;;;5047505;28;20283;-48
2022/11/01 04:55:17;;;;;;;;;;;11.30;99.90;;;;;;5038934;28;19909;-48
2022/11/01 04:57:43;;;;;;;;;;;11.20;99.90;;;;;;5034220;28;19921;-46
2022/11/01 05:00:12;;;;;;;;;;;11.20;99.90;;;;;;5043233;28;19913;-48
2022/11/01 05:02:38;;;;;;;;;;;11.20;99.90;;;;;;5043714;28;19916;-46
2022/11/01 05:05:04;;;;;;;;;;;11.20;99.90;;;;;;5028140;28;19916;-49
2022/11/01 05:07:30;;;;;;;;;;;11.20;99.90;;;;;;5035692;28;20271;-47
2022/11/01 05:09:55;;;;;;;;;;;11.20;99.90;;;;;;5045592;28;20337;-44
2022/11/01 05:12:21;;;;;;;;;;;11.20;99.90;;;;;;5048702;28;19962;-48
2022/11/01 05:14:46;;;;;;;;;;;11.10;99.90;;;;;;5045322;28;19912;-46
2022/11/01 05:17:11;;;;;;;;;;;11.20;99.90;;;;;;5032572;28;19917;-48
2022/11/01 05:19:37;;;;;;;;;;;11.20;99.90;;;;;;5041754;28;19923;-47
2022/11/01 05:22:03;;;;;;;;;;;11.20;99.90;;;;;;5033452;28;20322;-48
2022/11/01 05:24:28;;;;;;;;;;;11.10;99.90;;;;;;5028296;28;19909;-49
2022/11/01 05:26:54;;;;;;;;;;;11.20;99.90;;;;;;5025109;28;20370;-45
2022/11/01 05:29:19;;;;;;;;;;;11.20;99.90;;;;;;5034489;28;19967;-46
2022/11/01 05:31:45;;;;;;;;;;;11.20;99.90;;;;;;5043621;28;19951;-46
2022/11/01 05:34:10;;;;;;;;;;;11.30;99.90;;;;;;5033718;28;19930;-51
2022/11/01 05:36:36;;;;;;;;;;;11.30;99.90;;;;;;5032184;28;20075;-49
2022/11/01 05:39:01;;;;;;;;;;;11.30;99.90;;;;;;5020795;28;19920;-47
2022/11/01 05:41:27;;;;;;;;;;;11.30;99.90;;;;;;5029034;28;19916;-45
2022/11/01 05:43:52;;;;;;;;;;;11.30;99.90;;;;;;5035783;28;20343;-45
2022/11/01 05:46:18;;;;;;;;;;;11.30;99.90;;;;;;5039113;28;19912;-48
2022/11/01 05:48:43;;;;;;;;;;;11.30;99.90;;;;;;5029887;28;19905;-50
2022/11/01 05:51:09;;;;;;;;;;;11.30;99.90;;;;;;5038813;28;19966;-50
2022/11/01 05:53:35;;;;;;;;;;;11.30;99.90;;;;;;5049144;28;19909;-49
2022/11/01 05:56:00;;;;;;;;;;;11.30;99.90;;;;;;5048892;28;19909;-47
2022/11/01 05:58:26;;;;;;;;;;;11.20;99.90;;;;;;5049267;28;19904;-50
2022/11/01 06:00:58;;;;;;;;;;;11.20;99.90;;;;;;5049010;28;20236;-49
2022/11/01 06:03:23;;;;;;;;;;;11.20;99.90;;;;;;5049374;28;20383;-50
2022/11/01 06:05:49;;;;;;;;;;;11.30;99.90;;;;;;5045848;28;20031;-50
2022/11/01 06:08:15;;;;;;;;;;;11.30;99.90;;;;;;5029009;28;19913;-47
2022/11/01 06:10:40;;;;;;;;;;;11.20;99.90;;;;;;5044511;28;20019;-50
2022/11/01 06:13:06;;;;;;;;;;;11.20;99.90;;;;;;5049113;28;19911;-49
2022/11/01 06:15:31;;;;;;;;;;;11.20;99.90;;;;;;5048882;28;20419;-49
2022/11/01 06:17:57;;;;;;;;;;;11.20;99.90;;;;;;5048471;28;19921;-48
2022/11/01 06:20:23;;;;;;;;;;;11.20;99.90;;;;;;5036957;28;20256;-43
2022/11/01 06:22:49;;;;;;;;;;;11.20;99.90;;;;;;5029436;28;19913;-51
2022/11/01 06:25:14;;;;;;;;;;;11.20;99.90;;;;;;5043204;28;19999;-46
2022/11/01 06:27:39;;;;;;;;;;;11.20;99.90;;;;;;5048786;28;19917;-46
2022/11/01 06:30:05;;;;;;;;;;;11.30;99.90;;;;;;5049343;28;19913;-44
2022/11/01 06:32:31;;;;;;;;;;;11.30;99.90;;;;;;5049540;28;20257;-45
2022/11/01 06:34:56;;;;;;;;;;;11.30;99.90;;;;;;5048427;28;19920;-45
2022/11/01 06:37:22;;;;;;;;;;;11.30;99.90;;;;;;5027450;28;19913;-49
2022/11/01 06:39:47;;;;;;;;;;;11.40;99.90;;;;;;5027988;28;19913;-48
2022/11/01 06:42:13;;;;;;;;;;;11.40;99.90;;;;;;5036170;28;19962;-49
2022/11/01 06:44:38;;;;;;;;;;;11.40;99.90;;;;;;5048899;28;19921;-46
2022/11/01 06:47:03;;;;;;;;;;;11.50;99.90;;;;;;5044664;28;19905;-50
2022/11/01 06:49:29;;;;;;;;;;;11.50;99.90;;;;;;5029887;28;20004;-49
2022/11/01 06:51:54;;;;;;;;;;;11.60;99.90;;;;;;5048640;28;19905;-43
2022/11/01 06:54:20;;;;;;;;;;;11.60;99.90;;;;;;5048471;28;19909;-48
2022/11/01 06:56:46;;;;;;;;;;;11.60;99.90;;;;;;5048860;28;19948;-46
2022/11/01 06:59:12;;;;;;;;;;;11.70;99.90;;;;;;5033661;28;19905;-44
2022/11/01 07:01:37;;;;;;;;;;;11.70;99.90;;;;;;5048477;28;20321;-45
2022/11/01 07:04:03;;;;;;;;;;;11.80;99.90;;;;;;5048603;28;19905;-49
2022/11/01 07:06:29;;;;;;;;;;;11.80;99.90;;;;;;5024690;28;19912;-47
2022/11/01 07:08:56;;;;;;;;;;;11.90;99.90;;;;;;5028197;28;20272;-46
2022/11/01 07:11:22;;;;;;;;;;;11.90;99.90;;;;;;5036415;28;19938;-46
2022/11/01 07:13:47;;;;;;;;;;;12.00;99.90;;;;;;5046667;28;19915;-46
2022/11/01 07:16:13;;;;;;;;;;;12.00;99.90;;;;;;5052345;28;19950;-47
2022/11/01 07:18:38;;;;;;;;;;;12.00;99.90;;;;;;5047117;28;19905;-50
2022/11/01 07:21:04;;;;;;;;;;;12.00;99.90;;;;;;5052266;28;19912;-47
2022/11/01 07:23:30;;;;;;;;;;;12.10;99.90;;;;;;5052034;28;19939;-45
2022/11/01 07:25:56;;;;;;;;;;;12.10;99.90;;;;;;5052269;28;19944;-45
2022/11/01 07:28:22;;;;;;;;;;;12.10;99.90;;;;;;5051957;28;19912;-50
2022/11/01 07:30:48;;;;;;;;;;;12.20;99.90;;;;;;5052206;28;19923;-46
2022/11/01 07:33:13;;;;;;;;;;;12.20;99.90;;;;;;5043888;28;19991;-49
2022/11/01 07:35:38;;;;;;;;;;;12.30;99.90;;;;;;5029371;28;19996;-49
2022/11/01 07:38:04;;;;;;;;;;;12.50;99.90;;;;;;5033418;28;19908;-47
2022/11/01 07:40:29;;;;;;;;;;;12.60;99.90;;;;;;5051771;28;20367;-46
2022/11/01 07:42:57;;;;;;;;;;;12.80;99.90;;;;;;5051656;28;19971;-47
2022/11/01 07:45:23;;;;;;;;;;;12.90;99.90;;;;;;5051827;28;19908;-45
2022/11/01 07:47:48;;;;;;;;;;;13.00;99.90;;;;;;5042365;28;19905;-52
2022/11/01 07:50:14;;;;;;;;;;;13.10;99.90;;;;;;5039439;28;19913;-48
2022/11/01 07:52:39;;;;;;;;;;;13.20;99.90;;;;;;5052111;28;19911;-51
2022/11/01 07:55:05;;;;;;;;;;;13.40;99.90;;;;;;5050244;28;19905;-50
2022/11/01 07:57:35;;;;;;;;;;;13.60;99.90;;;;;;5051509;28;20290;-50
2022/11/01 08:00:01;;;;;;;;;;;13.80;99.90;;;;;;5052012;28;20256;-45
2022/11/01 08:02:26;;;;;;;;;;;13.80;99.90;;;;;;5051186;28;19970;-49
2022/11/01 08:04:53;;;;;;;;;;;13.80;99.90;;;;;;5031837;28;19917;-49
2022/11/01 08:07:18;;;;;;;;;;;13.70;99.90;;;;;;5046116;28;19905;-47
2022/11/01 08:09:44;;;;;;;;;;;13.90;99.90;;;;;;5040451;28;19982;-49
2022/11/01 08:12:09;;;;;;;;;;;14.00;99.90;;;;;;5045975;28;19905;-46
2022/11/01 08:14:35;;;;;;;;;;;14.00;99.90;;;;;;5044560;28;19909;-46
2022/11/01 08:17:00;;;;;;;;;;;14.10;99.90;;;;;;5045931;28;19985;-47
2022/11/01 08:19:26;;;;;;;;;;;14.20;99.90;;;;;;5046500;28;19931;-46
2022/11/01 08:21:51;;;;;;;;;;;14.20;99.90;;;;;;5051103;28;19909;-46
2022/11/01 08:24:17;;;;;;;;;;;14.20;99.90;;;;;;5051051;28;20451;-46
2022/11/01 08:26:42;;;;;;;;;;;14.30;99.90;;;;;;5050847;28;19970;-51
2022/11/01 08:29:08;;;;;;;;;;;14.30;99.90;;;;;;5050968;28;19905;-47
2022/11/01 08:31:37;;;;;;;;;;;14.50;99.90;;;;;;5050736;28;19909;-50
2022/11/01 08:34:03;;;;;;;;;;;14.80;99.90;;;;;;5034978;28;19919;-43
2022/11/01 08:36:28;;;;;;;;;;;15.00;99.90;;;;;;5032061;28;19917;-48
2022/11/01 08:38:54;;;;;;;;;;;15.30;99.90;;;;;;5050933;28;19909;-48
2022/11/01 08:41:19;;;;;;;;;;;15.60;99.90;;;;;;5049433;28;20015;-50
2022/11/01 08:43:45;;;;;;;;;;;15.60;99.90;;;;;;5050676;28;19906;-50
2022/11/01 08:46:10;;;;;;;;;;;15.50;99.90;;;;;;5050531;28;19930;-48
2022/11/01 08:48:35;;;;;;;;;;;15.70;99.90;;;;;;5034284;28;19916;-47
2022/11/01 08:51:01;;;;;;;;;;;15.30;99.90;;;;;;5044213;28;19909;-48
2022/11/01 08:53:27;;;;;;;;;;;15.20;99.90;;;;;;5050508;28;20347;-49
2022/11/01 08:55:55;;;;;;;;;;;14.80;99.90;;;;;;5038958;28;20004;-48
2022/11/01 08:58:21;;;;;;;;;;;14.80;99.90;;;;;;5037664;28;20042;-47
2022/11/01 09:00:46;;;;;;;;;;;14.80;99.90;;;;;;5050024;28;19999;-50
2022/11/01 09:03:13;;;;;;;;;;;14.90;99.90;;;;;;5050387;28;19924;-46
2022/11/01 09:05:39;;;;;;;;;;;14.90;99.90;;;;;;5050174;28;19905;-46
2022/11/01 09:08:05;;;;;;;;;;;15.00;99.90;;;;;;5050220;28;20367;-51
2022/11/01 09:10:31;;;;;;;;;;;15.00;99.90;;;;;;5033512;28;20405;-48
2022/11/01 09:12:59;;;;;;;;;;;15.20;99.90;;;;;;5049881;28;19908;-48
2022/11/01 09:15:25;;;;;;;;;;;15.40;99.90;;;;;;5048671;28;19996;-51
2022/11/01 09:17:51;;;;;;;;;;;15.40;99.90;;;;;;5030343;28;20415;-49
2022/11/01 09:20:17;;;;;;;;;;;15.30;99.90;;;;;;5044265;28;19912;-48
2022/11/01 09:22:43;;;;;;;;;;;15.40;99.90;;;;;;5050027;28;20341;-50
2022/11/01 09:25:08;;;;;;;;;;;15.50;99.90;;;;;;5048073;28;20221;-51
2022/11/01 09:27:34;;;;;;;;;;;15.50;99.90;;;;;;5042757;28;19913;-46
2022/11/01 09:29:59;;;;;;;;;;;15.60;99.90;;;;;;5043251;28;19951;-48
2022/11/01 09:32:28;;;;;;;;;;;15.70;99.90;;;;;;5049969;28;20419;-51
2022/11/01 09:34:53;;;;;;;;;;;15.80;99.90;;;;;;5048936;28;20007;-48
2022/11/01 09:37:19;;;;;;;;;;;16.00;99.90;;;;;;5050078;28;20433;-48
2022/11/01 09:39:44;;;;;;;;;;;16.20;99.90;;;;;;5049501;28;19904;-47
2022/11/01 09:42:34;;;;;;;;;;;16.30;99.90;;;;;;5049540;28;19999;-47
2022/11/01 09:45:03;;;;;;;;;;;16.50;99.90;;;;;;5036678;28;20245;-50
2022/11/01 09:47:29;;;;;;;;;;;16.60;99.90;;;;;;5029518;28;19912;-47
2022/11/01 09:50:15;;;;;;;;;;;16.90;99.90;;;;;;5033952;28;20457;-46
2022/11/01 09:52:40;;;;;;;;;;;16.70;99.90;;;;;;5049605;28;20201;-47
2022/11/01 09:55:13;;;;;;;;;;;16.50;99.90;;;;;;5049640;28;20144;-52
2022/11/01 09:57:42;;;;;;;;;;;16.40;99.90;;;;;;5049221;28;19909;-46
2022/11/01 10:00:17;;;;;;;;;;;16.40;99.90;;;;;;5049198;28;20354;-51
2022/11/01 10:03:01;;;;;;;;;;;16.50;99.90;;;;;;5049156;28;19909;-50
2022/11/01 10:05:45;;;;;;;;;;;16.20;99.90;;;;;;5049477;28;20337;-51
2022/11/01 10:08:19;;;;;;;;;;;16.20;99.90;;;;;;5049193;28;19905;-50
2022/11/01 10:10:44;;;;;;;;;;;16.10;99.90;;;;;;5032429;28;20267;-48
2022/11/01 10:13:16;;;;;;;;;;;16.00;99.90;;;;;;5048870;28;19904;-46
2022/11/01 10:16:00;;;;;;;;;;;16.00;99.90;;;;;;5032629;28;19920;-49
2022/11/01 10:18:27;;;;;;;;;;;15.90;99.90;;;;;;5033685;28;19905;-49
2022/11/01 10:20:58;;;;;;;;;;;15.80;99.90;;;;;;5029009;28;20014;-50
2022/11/01 10:23:31;;;;;;;;;;;15.80;99.90;;;;;;5030047;28;20311;-46
2022/11/01 10:25:56;;;;;;;;;;;15.90;99.90;;;;;;5048720;28;19931;-50
2022/11/01 10:28:30;;;;;;;;;;;16.00;99.90;;;;;;5048494;28;19913;-50
2022/11/01 10:31:00;;;;;;;;;;;15.90;99.90;;;;;;5048612;28;19913;-47
2022/11/01 10:33:28;;;;;;;;;;;15.90;99.90;;;;;;5048708;28;19905;-50
2022/11/01 10:35:58;;;;;;;;;;;16.00;99.90;;;;;;5048394;28;20386;-49
2022/11/01 10:38:35;;;;;;;;;;;16.00;99.90;;;;;;5048706;28;19909;-46
2022/11/01 10:41:10;;;;;;;;;;;16.00;99.90;;;;;;5048619;28;20003;-48
2022/11/01 10:43:37;;;;;;;;;;;16.00;99.90;;;;;;5048738;28;19916;-51
2022/11/01 10:46:06;;;;;;;;;;;16.00;99.90;;;;;;5034154;28;20008;-43
2022/11/01 10:48:33;;;;;;;;;;;16.00;99.90;;;;;;5026313;28;19909;-51
2022/11/01 10:51:02;;;;;;;;;;;16.00;99.90;;;;;;5034470;28;19909;-48
2022/11/01 10:53:30;;;;;;;;;;;16.00;99.90;;;;;;5052842;28;20322;-49
2022/11/01 10:55:56;;;;;;;;;;;16.10;99.90;;;;;;5052512;28;19947;-48
2022/11/01 10:58:29;;;;;;;;;;;16.10;99.90;;;;;;5052649;28;20382;-48
2022/11/01 11:00:55;;;;;;;;;;;16.10;99.90;;;;;;5052328;28;19904;-50
2022/11/01 11:03:22;;;;;;;;;;;16.30;99.90;;;;;;5052542;28;19909;-51
2022/11/01 11:05:48;;;;;;;;;;;16.40;99.90;;;;;;5052129;28;19913;-51
2022/11/01 11:08:15;;;;;;;;;;;16.50;99.90;;;;;;5052434;28;19908;-50
2022/11/01 11:10:41;;;;;;;;;;;16.60;99.90;;;;;;5037844;28;19908;-49
2022/11/01 11:13:07;;;;;;;;;;;16.60;99.90;;;;;;5047582;28;19913;-51
2022/11/01 11:15:36;;;;;;;;;;;16.50;99.90;;;;;;5036165;28;19908;-50
2022/11/01 11:18:03;;;;;;;;;;;16.40;99.90;;;;;;5051337;28;19966;-48
2022/11/01 11:20:29;;;;;;;;;;;16.40;99.90;;;;;;5033626;28;19913;-48
2022/11/01 11:22:55;;;;;;;;;;;16.40;99.90;;;;;;5031920;28;19913;-52
2022/11/01 11:25:26;;;;;;;;;;;16.40;99.90;;;;;;5033330;28;19908;-51
2022/11/01 11:27:51;;;;;;;;;;;16.40;99.90;;;;;;5050956;28;19912;-48
2022/11/01 11:30:27;;;;;;;;;;;16.40;99.90;;;;;;5047280;28;19914;-50
2022/11/01 11:32:53;;;;;;;;;;;16.50;99.90;;;;;;5051970;28;20011;-48
2022/11/01 11:35:20;;;;;;;;;;;16.50;99.90;;;;;;5051694;28;20064;-49
2022/11/01 11:37:51;;;;;;;;;;;16.40;99.90;;;;;;5052213;28;19909;-51
2022/11/01 11:40:19;;;;;;;;;;;16.60;99.90;;;;;;5051744;28;19908;-52
2022/11/01 11:42:47;;;;;;;;;;;16.80;99.90;;;;;;5052048;28;19904;-49
2022/11/01 11:45:18;;;;;;;;;;;16.60;99.90;;;;;;5051466;28;19905;-47
2022/11/01 11:47:46;;;;;;;;;;;16.80;99.90;;;;;;5042568;28;19911;-47
2022/11/01 11:50:18;;;;;;;;;;;16.70;99.90;;;;;;5051022;28;20000;-52
2022/11/01 11:52:44;;;;;;;;;;;16.70;99.90;;;;;;5032731;28;20413;-49
2022/11/01 11:55:28;;;;;;;;;;;16.80;99.90;;;;;;5038244;28;19908;-48
2022/11/01 11:57:54;;;;;;;;;;;17.00;99.90;;;;;;5050922;28;19958;-48
2022/11/01 12:00:22;;;;;;;;;;;16.90;99.90;;;;;;5051293;28;19990;-48
2022/11/01 12:02:48;;;;;;;;;;;17.00;99.90;;;;;;5051442;28;20414;-48
2022/11/01 12:05:18;;;;;;;;;;;17.00;99.90;;;;;;5051287;28;19909;-50
2022/11/01 12:07:47;;;;;;;;;;;17.20;99.90;;;;;;5051213;28;19916;-50
2022/11/01 12:10:25;;;;;;;;;;;17.30;99.90;;;;;;5036376;28;20027;-50
2022/11/01 12:12:51;;;;;;;;;;;17.30;99.90;;;;;;5045472;28;19999;-46
2022/11/01 12:15:43;;;;;;;;;;;17.50;99.90;;;;;;5030846;28;20011;-50
2022/11/01 12:18:11;;;;;;;;;;;17.40;99.90;;;;;;5022609;28;20004;-50
2022/11/01 12:20:37;;;;;;;;;;;17.40;99.90;;;;;;5031470;28;20361;-48
2022/11/01 12:23:09;;;;;;;;;;;17.40;99.90;;;;;;5051678;28;20011;-53
2022/11/01 12:25:36;;;;;;;;;;;17.50;99.90;;;;;;5050992;28;19957;-51
2022/11/01 12:28:23;;;;;;;;;;;17.30;99.90;;;;;;5050927;28;19908;-49
2022/11/01 12:30:51;;;;;;;;;;;17.20;99.90;;;;;;5050825;28;19908;-50
2022/11/01 12:33:25;;;;;;;;;;;17.10;99.90;;;;;;5050643;28;19948;-50
2022/11/01 12:35:53;;;;;;;;;;;17.10;99.90;;;;;;5049343;28;20220;-50
2022/11/01 12:38:24;;;;;;;;;;;17.10;99.90;;;;;;5050920;28;20013;-49
2022/11/01 12:40:51;;;;;;;;;;;17.20;99.90;;;;;;5048172;28;19908;-52
2022/11/01 12:43:16;;;;;;;;;;;17.40;99.90;;;;;;5031106;28;20323;-52
2022/11/01 12:45:54;;;;;;;;;;;17.50;99.90;;;;;;5037634;28;19913;-51
2022/11/01 12:48:35;;;;;;;;;;;17.50;99.90;;;;;;5024506;28;19913;-51
2022/11/01 12:51:06;;;;;;;;;;;17.50;99.90;;;;;;5029734;28;20015;-48
2022/11/01 12:53:51;;;;;;;;;;;17.50;99.90;;;;;;5047712;28;19954;-45
2022/11/01 12:56:16;;;;;;;;;;;17.30;99.90;;;;;;5050328;28;19909;-49
2022/11/01 12:58:42;;;;;;;;;;;17.40;99.90;;;;;;5050306;28;19911;-49
2022/11/01 13:01:07;;;;;;;;;;;17.10;99.90;;;;;;5050629;28;19909;-50
2022/11/01 13:03:43;;;;;;;;;;;17.00;99.90;;;;;;5050186;28;20359;-49
2022/11/01 13:06:23;;;;;;;;;;;16.70;99.90;;;;;;5049991;28;19915;-51
2022/11/01 13:08:57;;;;;;;;;;;16.50;99.90;;;;;;5046848;28;19983;-49
2022/11/01 13:11:25;;;;;;;;;;;16.40;99.90;;;;;;5032819;28;19947;-52
2022/11/01 13:14:10;;;;;;;;;;;16.50;99.90;;;;;;5037546;28;20356;-50
2022/11/01 13:16:38;;;;;;;;;;;16.30;99.90;;;;;;5024490;28;19912;-45
2022/11/01 13:19:26;;;;;;;;;;;16.30;99.90;;;;;;5039931;28;19908;-50
2022/11/01 13:21:52;;;;;;;;;;;16.30;99.90;;;;;;5040383;28;19909;-48
2022/11/01 13:24:32;;;;;;;;;;;16.10;99.90;;;;;;5045153;28;20328;-51
2022/11/01 13:27:06;;;;;;;;;;;16.10;99.90;;;;;;5029875;28;20379;-51
2022/11/01 13:29:40;;;;;;;;;;;16.10;99.90;;;;;;5036887;28;19916;-46
2022/11/01 13:32:21;;;;;;;;;;;15.90;99.90;;;;;;5049885;28;19908;-49
2022/11/01 13:35:00;;;;;;;;;;;15.80;99.90;;;;;;5049546;28;19921;-46
2022/11/01 13:37:29;;;;;;;;;;;15.70;99.90;;;;;;5044396;28;20285;-49
2022/11/01 13:39:57;;;;;;;;;;;15.70;99.90;;;;;;5040837;28;19911;-51
2022/11/01 13:42:32;;;;;;;;;;;15.70;99.90;;;;;;5034381;28;20450;-50
2022/11/01 13:45:04;;;;;;;;;;;15.70;99.90;;;;;;5042326;28;19905;-49
2022/11/01 13:47:36;;;;;;;;;;;15.70;99.90;;;;;;5048679;28;19908;-49
2022/11/01 13:50:20;;;;;;;;;;;15.70;99.90;;;;;;5049422;28;20387;-48
2022/11/01 13:53:09;;;;;;;;;;;15.70;99.90;;;;;;5049670;28;19905;-49
2022/11/01 13:55:37;;;;;;;;;;;15.70;99.90;;;;;;5022887;28;19915;-47
2022/11/01 13:58:06;;;;;;;;;;;15.80;99.90;;;;;;5049309;28;19908;-47
2022/11/01 14:00:43;;;;;;;;;;;15.70;99.90;;;;;;5050003;28;19908;-50
2022/11/01 14:03:15;;;;;;;;;;;15.70;99.90;;;;;;5048972;28;20351;-50
2022/11/01 14:05:42;;;;;;;;;;;15.80;99.90;;;;;;5049120;28;19905;-50
2022/11/01 14:08:13;;;;;;;;;;;15.80;99.90;;;;;;5049331;28;20316;-51
2022/11/01 14:10:39;;;;;;;;;;;15.70;99.90;;;;;;5029704;28;20010;-48
2022/11/01 14:13:09;;;;;;;;;;;15.70;99.90;;;;;;5044134;28;20363;-48
2022/11/01 14:15:38;;;;;;;;;;;15.70;99.90;;;;;;5035494;28;19916;-48
2022/11/01 14:18:07;;;;;;;;;;;15.60;99.90;;;;;;5047710;28;19913;-48
2022/11/01 14:20:43;;;;;;;;;;;15.60;99.90;;;;;;5030254;28;19909;-47
2022/11/01 14:23:27;;;;;;;;;;;15.70;99.90;;;;;;5028314;28;20382;-50
2022/11/01 14:26:11;;;;;;;;;;;15.70;99.90;;;;;;5047677;28;19983;-48
2022/11/01 14:28:47;;;;;;;;;;;15.50;99.90;;;;;;5048834;28;20267;-47